createdAt,value
2018-04-27T00:01:45.903Z,76.54
2018-04-27T00:04:49.261Z,76.64
2018-04-27T00:07:52.603Z,76.49
2018-04-27T00:10:55.962Z,76.40
2018-04-27T00:13:59.294Z,76.70
2018-04-27T00:17:02.638Z,77.14
2018-04-27T00:20:05.992Z,77.34
2018-04-27T00:23:09.317Z,77.67
2018-04-27T00:26:13.422Z,77.72
2018-04-27T00:29:16.770Z,77.98
2018-04-27T00:32:20.102Z,77.96
2018-04-27T00:35:24.233Z,78.02
2018-04-27T00:38:27.564Z,78.08
2018-04-27T00:41:30.929Z,78.04
2018-04-27T00:44:34.267Z,77.96
2018-04-27T00:47:37.631Z,78.40
2018-04-27T00:50:41.754Z,78.58
2018-04-27T00:53:45.854Z,78.33
2018-04-27T00:56:49.195Z,78.46
2018-04-27T00:59:52.558Z,78.60
2018-04-27T01:02:56.649Z,78.71
2018-04-27T01:05:59.998Z,79.06
2018-04-27T01:09:03.335Z,79.34
2018-04-27T01:12:06.686Z,79.40
2018-04-27T01:15:10.017Z,79.61
2018-04-27T01:18:13.384Z,80.12
2018-04-27T01:21:16.719Z,80.58
2018-04-27T01:24:20.063Z,80.53
2018-04-27T01:27:24.183Z,80.91
2018-04-27T01:30:27.549Z,81.22
2018-04-27T01:33:30.873Z,81.40
2018-04-27T01:36:34.986Z,81.69
2018-04-27T01:39:39.083Z,81.22
2018-04-27T01:42:42.450Z,81.01
2018-04-27T01:45:45.784Z,80.72
2018-04-27T01:48:49.894Z,80.59
2018-04-27T01:51:54.002Z,80.74
2018-04-27T01:54:57.341Z,80.87
2018-04-27T01:58:00.699Z,80.49
2018-04-27T02:01:04.022Z,80.20
2018-04-27T02:04:08.133Z,79.96
2018-04-27T02:07:12.231Z,79.58
2018-04-27T02:10:15.580Z,79.21
2018-04-27T02:13:18.901Z,79.00
2018-04-27T02:16:22.193Z,79.00
2018-04-27T02:19:25.505Z,79.12
2018-04-27T02:22:28.802Z,78.96
2018-04-27T02:25:32.112Z,78.87
2018-04-27T02:28:35.405Z,78.71
2018-04-27T02:31:38.717Z,78.86
2018-04-27T02:34:42.885Z,79.02
2018-04-27T02:37:46.109Z,79.27
2018-04-27T02:40:49.406Z,79.38
2018-04-27T02:43:52.737Z,79.43
2018-04-27T02:46:56.034Z,79.38
2018-04-27T02:49:59.354Z,79.47
2018-04-27T02:53:02.645Z,79.51
2018-04-27T02:56:05.959Z,79.08
2018-04-27T02:59:09.256Z,79.17
2018-04-27T03:02:12.558Z,79.26
2018-04-27T03:05:15.876Z,79.13
2018-04-27T03:08:19.174Z,79.15
2018-04-27T03:11:22.497Z,79.39
2018-04-27T03:14:25.800Z,79.50
2018-04-27T03:17:29.134Z,79.82
2018-04-27T03:20:32.446Z,79.94
2018-04-27T03:23:35.769Z,80.20
2018-04-27T03:26:39.831Z,80.79
2018-04-27T03:29:43.164Z,81.12
2018-04-27T03:32:46.457Z,81.36
2018-04-27T03:35:49.769Z,81.63
2018-04-27T03:38:53.861Z,81.81
2018-04-27T03:41:57.157Z,82.23
2018-04-27T03:45:00.475Z,82.59
2018-04-27T03:48:04.538Z,82.87
2018-04-27T03:51:07.853Z,83.17
2018-04-27T03:54:11.149Z,83.51
2018-04-27T03:57:14.457Z,83.82
2018-04-27T04:00:35.394Z,84.28
2018-04-27T04:03:57.050Z,84.55
2018-04-27T04:07:00.368Z,84.89
2018-04-27T04:10:03.662Z,85.05
2018-04-27T04:13:06.986Z,85.04
2018-04-27T04:16:10.286Z,85.39
2018-04-27T04:19:13.596Z,85.70
2018-04-27T04:22:17.657Z,85.91
2018-04-27T04:25:20.978Z,85.90
2018-04-27T04:28:24.277Z,86.13
2018-04-27T04:31:27.605Z,86.44
2018-04-27T04:34:31.665Z,86.85
2018-04-27T04:37:34.964Z,87.39
2018-04-27T04:40:38.284Z,87.92
2018-04-27T04:43:41.577Z,87.92
2018-04-27T04:46:44.885Z,88.08
2018-04-27T04:49:48.189Z,88.53
2018-04-27T04:52:51.492Z,88.87
2018-04-27T04:55:55.578Z,89.31
2018-04-27T04:58:58.873Z,89.57
2018-04-27T05:02:02.182Z,89.49
2018-04-27T05:05:05.505Z,89.46
2018-04-27T05:08:09.609Z,89.27
2018-04-27T05:11:12.877Z,89.35
2018-04-27T05:14:16.184Z,89.56
2018-04-27T05:17:19.520Z,89.46
2018-04-27T05:20:22.026Z,89.24
2018-04-27T05:23:25.333Z,88.74
2018-04-27T05:26:28.632Z,88.83
2018-04-27T05:29:31.982Z,88.68
2018-04-27T05:32:35.293Z,88.56
2018-04-27T05:35:38.586Z,88.49
2018-04-27T05:38:41.888Z,88.37
2018-04-27T05:41:45.194Z,88.53
2018-04-27T05:44:48.501Z,87.95
2018-04-27T05:47:51.813Z,87.56
2018-04-27T05:50:55.117Z,87.27
2018-04-27T05:53:58.455Z,86.98
2018-04-27T05:57:01.746Z,87.06
2018-04-27T06:00:05.053Z,87.24
2018-04-27T06:03:08.369Z,87.28
2018-04-27T06:06:11.661Z,87.34
2018-04-27T06:09:15.005Z,87.00
2018-04-27T06:12:18.329Z,86.54
2018-04-27T06:15:21.641Z,86.76
2018-04-27T06:18:24.937Z,86.89
2018-04-27T06:21:28.244Z,86.07
2018-04-27T06:24:31.552Z,85.86
2018-04-27T06:27:34.873Z,85.36
2018-04-27T06:30:38.178Z,84.85
2018-04-27T06:33:41.512Z,84.05
2018-04-27T06:36:44.817Z,84.83
2018-04-27T06:39:48.146Z,84.17
2018-04-27T06:42:51.465Z,83.96
2018-04-27T06:45:54.806Z,83.29
2018-04-27T06:48:59.248Z,83.28
2018-04-27T06:52:02.685Z,83.98
2018-04-27T06:55:06.001Z,83.96
2018-04-27T06:58:10.071Z,83.53
2018-04-27T07:01:13.388Z,82.42
2018-04-27T07:04:16.766Z,81.98
2018-04-27T07:07:20.081Z,80.60
2018-04-27T07:10:23.424Z,79.58
2018-04-27T07:13:26.724Z,77.12
2018-04-27T07:16:30.041Z,78.42
2018-04-27T07:19:33.361Z,77.20
2018-04-27T07:22:36.671Z,76.46
2018-04-27T07:25:39.994Z,74.32
2018-04-27T07:28:43.297Z,74.79
2018-04-27T07:31:46.613Z,74.84
2018-04-27T07:34:49.953Z,75.40
2018-04-27T07:37:53.260Z,74.74
2018-04-27T07:40:56.560Z,75.50
2018-04-27T07:43:59.881Z,73.33
2018-04-27T07:47:03.185Z,73.66
2018-04-27T07:50:06.513Z,74.15
2018-04-27T07:53:09.830Z,74.87
2018-04-27T07:56:13.154Z,75.21
2018-04-27T07:59:17.221Z,74.86
2018-04-27T08:02:20.554Z,74.88
2018-04-27T08:05:23.870Z,75.48
2018-04-27T08:08:27.186Z,75.67
2018-04-27T08:11:30.509Z,70.97
2018-04-27T08:14:33.804Z,71.02
2018-04-27T08:17:37.397Z,69.73
2018-04-27T08:20:40.700Z,68.25
2018-04-27T08:23:44.018Z,67.68
2018-04-27T08:26:47.330Z,68.59
2018-04-27T08:29:50.657Z,66.18
2018-04-27T08:32:53.965Z,67.25
2018-04-27T08:35:57.393Z,65.16
2018-04-27T08:39:00.717Z,66.83
2018-04-27T08:42:04.021Z,65.03
2018-04-27T08:45:08.139Z,64.97
2018-04-27T08:48:12.221Z,64.73
2018-04-27T08:51:15.565Z,66.22
2018-04-27T08:54:18.869Z,64.82
2018-04-27T08:57:22.186Z,66.61
2018-04-27T09:00:25.521Z,64.55
2018-04-27T09:03:28.830Z,67.28
2018-04-27T09:06:32.918Z,66.78
2018-04-27T09:09:36.222Z,66.35
2018-04-27T09:12:39.537Z,64.03
2018-04-27T09:15:43.631Z,61.64
2018-04-27T09:18:46.936Z,62.22
2018-04-27T09:21:50.273Z,60.93
2018-04-27T09:24:53.609Z,63.54
2018-04-27T09:27:56.953Z,65.95
2018-04-27T09:31:00.308Z,65.57
2018-04-27T09:34:03.616Z,64.08
2018-04-27T09:37:08.448Z,65.30
2018-04-27T09:40:12.310Z,66.07
2018-04-27T09:43:15.620Z,67.33
2018-04-27T09:46:18.929Z,66.04
2018-04-27T09:49:25.932Z,65.37
2018-04-27T09:52:29.267Z,66.13
2018-04-27T09:55:32.579Z,62.63
2018-04-27T09:58:35.898Z,61.65
2018-04-27T10:01:39.224Z,62.84
2018-04-27T10:04:42.533Z,64.97
2018-04-27T10:07:46.617Z,63.14
2018-04-27T10:10:49.967Z,62.77
2018-04-27T10:13:53.304Z,61.58
2018-04-27T10:16:56.617Z,61.83
2018-04-27T10:19:59.936Z,61.44
2018-04-27T10:23:04.013Z,60.17
2018-04-27T10:26:07.364Z,60.14
2018-04-27T10:29:11.482Z,61.96
2018-04-27T10:32:14.797Z,59.89
2018-04-27T10:35:18.103Z,59.90
2018-04-27T10:38:21.418Z,59.87
2018-04-27T10:41:24.721Z,61.39
2018-04-27T10:44:28.046Z,56.86
2018-04-27T10:47:32.117Z,61.09
2018-04-27T10:50:35.444Z,61.85
2018-04-27T10:53:38.749Z,62.47
2018-04-27T10:56:42.082Z,62.20
2018-04-27T10:59:45.393Z,61.35
2018-04-27T11:02:48.724Z,61.87
2018-04-27T11:05:52.059Z,60.96
2018-04-27T11:08:55.369Z,60.97
2018-04-27T11:11:58.700Z,61.68
2018-04-27T11:15:02.024Z,61.37
2018-04-27T11:18:05.338Z,58.58
2018-04-27T11:21:08.685Z,58.35
2018-04-27T11:24:11.999Z,56.31
2018-04-27T11:27:15.321Z,54.00
2018-04-27T11:30:18.653Z,57.61
2018-04-27T11:33:22.725Z,57.25
2018-04-27T11:36:26.823Z,57.12
2018-04-27T11:39:30.133Z,55.90
2018-04-27T11:42:34.225Z,55.19
2018-04-27T11:45:37.537Z,53.37
2018-04-27T11:48:40.869Z,57.15
2018-04-27T11:51:44.292Z,55.35
2018-04-27T11:54:47.601Z,54.44
2018-04-27T11:57:50.929Z,55.27
2018-04-27T12:00:54.228Z,56.52
2018-04-27T12:03:57.541Z,55.88
2018-04-27T12:07:01.612Z,52.74
2018-04-27T12:10:04.929Z,53.81
2018-04-27T12:13:08.254Z,54.54
2018-04-27T12:16:12.343Z,51.13
2018-04-27T12:19:15.660Z,51.78
2018-04-27T12:22:19.752Z,49.40
2018-04-27T12:25:23.057Z,52.10
2018-04-27T12:28:26.374Z,49.11
2018-04-27T12:31:29.843Z,47.81
2018-04-27T12:34:33.840Z,49.14
2018-04-27T12:37:37.153Z,49.24
2018-04-27T12:40:40.489Z,49.40
2018-04-27T12:43:43.795Z,45.72
2018-04-27T12:46:47.425Z,47.85
2018-04-27T12:49:50.734Z,48.23
2018-04-27T12:52:54.085Z,49.62
2018-04-27T12:55:57.393Z,48.95
2018-04-27T12:59:01.478Z,49.92
2018-04-27T13:02:05.545Z,46.54
2018-04-27T13:05:08.876Z,44.77
2018-04-27T13:08:12.949Z,45.83
2018-04-27T13:11:16.277Z,47.71
2018-04-27T13:14:19.581Z,45.70
2018-04-27T13:17:22.893Z,46.39
2018-04-27T13:20:26.960Z,46.40
2018-04-27T13:23:31.020Z,46.21
2018-04-27T13:26:35.172Z,44.50
2018-04-27T13:29:38.418Z,48.00
2018-04-27T13:32:41.717Z,44.68
2018-04-27T13:35:45.043Z,46.39
2018-04-27T13:38:48.344Z,47.21
2018-04-27T13:41:51.669Z,48.49
2018-04-27T13:44:54.994Z,46.96
2018-04-27T13:47:58.300Z,46.56
2018-04-27T13:51:01.622Z,47.69
2018-04-27T13:54:04.925Z,48.76
2018-04-27T13:57:08.229Z,46.39
2018-04-27T14:00:11.584Z,48.17
2018-04-27T14:03:14.861Z,45.00
2018-04-27T14:06:18.161Z,45.78
2018-04-27T14:09:21.495Z,45.85
2018-04-27T14:12:24.798Z,45.80
2018-04-27T14:15:28.145Z,47.12
2018-04-27T14:18:31.456Z,47.42
2018-04-27T14:21:34.802Z,50.52
2018-04-27T14:24:38.108Z,47.80
2018-04-27T14:27:41.428Z,48.51
2018-04-27T14:30:44.749Z,49.77
2018-04-27T14:33:48.086Z,50.52
2018-04-27T14:36:51.389Z,51.07
2018-04-27T14:39:54.701Z,51.28
2018-04-27T14:42:58.036Z,49.72
2018-04-27T14:46:02.111Z,49.48
2018-04-27T14:49:05.580Z,48.94
2018-04-27T14:52:08.754Z,50.89
2018-04-27T14:55:13.670Z,51.80
2018-04-27T14:58:17.000Z,51.49
2018-04-27T15:01:20.314Z,49.94
2018-04-27T15:04:24.403Z,48.34
2018-04-27T15:07:28.473Z,49.00
2018-04-27T15:10:31.790Z,51.87
2018-04-27T15:13:35.120Z,49.63
2018-04-27T15:16:38.426Z,49.56
2018-04-27T15:19:41.778Z,48.83
2018-04-27T15:22:45.086Z,49.69
2018-04-27T15:25:49.157Z,50.15
2018-04-27T15:28:52.485Z,50.67
2018-04-27T15:31:55.791Z,49.55
2018-04-27T15:34:59.122Z,50.36
2018-04-27T15:38:02.431Z,49.24
2018-04-27T15:41:05.794Z,47.22
2018-04-27T15:44:09.869Z,47.87
2018-04-27T15:47:13.187Z,47.34
2018-04-27T15:50:16.489Z,46.42
2018-04-27T15:53:20.590Z,46.95
2018-04-27T15:56:23.894Z,48.20
2018-04-27T15:59:27.225Z,50.23
2018-04-27T16:02:30.620Z,50.05
2018-04-27T16:05:33.946Z,49.58
2018-04-27T16:08:37.283Z,50.03
2018-04-27T16:11:40.596Z,50.92
2018-04-27T16:14:44.681Z,50.20
2018-04-27T16:17:47.997Z,50.98
2018-04-27T16:20:51.333Z,51.42
2018-04-27T16:23:54.642Z,51.03
2018-04-27T16:26:57.974Z,52.38
2018-04-27T16:30:01.289Z,58.70
2018-04-27T16:33:05.369Z,60.21
2018-04-27T16:36:08.681Z,60.00
2018-04-27T16:39:12.005Z,59.63
2018-04-27T16:42:16.170Z,60.74
2018-04-27T16:45:19.489Z,61.40
2018-04-27T16:48:22.788Z,63.84
2018-04-27T16:51:26.122Z,63.15
2018-04-27T16:54:29.477Z,62.78
2018-04-27T16:57:32.782Z,62.36
2018-04-27T17:00:36.096Z,61.39
2018-04-27T17:03:40.301Z,61.20
2018-04-27T17:06:44.277Z,61.71
2018-04-27T17:09:47.608Z,62.24
2018-04-27T17:12:51.703Z,62.56
2018-04-27T17:15:55.071Z,62.56
2018-04-27T17:18:58.368Z,60.84
2018-04-27T17:22:01.682Z,60.77
2018-04-27T17:25:04.995Z,61.20
2018-04-27T17:28:08.315Z,59.70
2018-04-27T17:31:12.393Z,60.10
2018-04-27T17:34:15.734Z,59.37
2018-04-27T17:37:19.065Z,60.76
2018-04-27T17:40:22.420Z,61.53
2018-04-27T17:43:25.756Z,61.52
2018-04-27T17:46:29.112Z,60.77
2018-04-27T17:49:33.193Z,61.79
2018-04-27T17:52:36.522Z,61.35
2018-04-27T17:55:39.907Z,61.58
2018-04-27T17:58:43.153Z,60.69
2018-04-27T18:01:46.469Z,60.26
2018-04-27T18:04:49.802Z,57.54
2018-04-27T18:07:53.885Z,57.29
2018-04-27T18:10:57.225Z,57.56
2018-04-27T18:14:01.294Z,58.10
2018-04-27T18:17:04.628Z,59.12
2018-04-27T18:20:08.742Z,60.42
2018-04-27T18:23:12.073Z,58.97
2018-04-27T18:26:15.376Z,60.06
2018-04-27T18:29:18.718Z,60.38
2018-04-27T18:32:22.048Z,61.94
2018-04-27T18:35:26.128Z,62.67
2018-04-27T18:38:29.469Z,65.47
2018-04-27T18:41:32.778Z,66.35
2018-04-27T18:44:36.198Z,66.15
2018-04-27T18:47:39.485Z,66.51
2018-04-27T18:50:42.796Z,68.44
2018-04-27T18:53:46.125Z,68.09
2018-04-27T18:56:49.437Z,69.20
2018-04-27T18:59:53.545Z,70.93
2018-04-27T19:02:57.690Z,71.63
2018-04-27T19:06:04.429Z,72.31
2018-04-27T19:09:07.730Z,73.18
2018-04-27T19:12:11.050Z,75.25
2018-04-27T19:15:14.361Z,76.12
2018-04-27T19:18:21.353Z,75.46
2018-04-27T19:21:24.699Z,75.12
2018-04-27T19:24:28.010Z,74.27
2018-04-27T19:27:31.334Z,75.48
2018-04-27T19:30:34.656Z,76.45
2018-04-27T19:33:37.966Z,77.67
2018-04-27T19:36:41.341Z,78.58
2018-04-27T19:39:44.649Z,79.26
2018-04-27T19:42:48.016Z,80.01
2018-04-27T19:45:52.066Z,80.11
2018-04-27T19:48:55.400Z,80.06
2018-04-27T19:51:59.470Z,79.94
2018-04-27T19:55:02.817Z,79.80
2018-04-27T19:58:06.890Z,79.76
2018-04-27T20:01:10.217Z,79.91
2018-04-27T20:04:14.355Z,80.20
2018-04-27T20:07:17.683Z,80.49
2018-04-27T20:10:26.031Z,81.56
2018-04-27T20:13:30.916Z,81.87
2018-04-27T20:16:40.208Z,82.26
2018-04-27T20:19:47.261Z,82.67
2018-04-27T20:22:50.567Z,82.69
2018-04-27T20:25:54.517Z,83.04
2018-04-27T20:28:58.585Z,83.53
2018-04-27T20:32:01.901Z,83.83
2018-04-27T20:35:13.657Z,84.19
2018-04-27T20:38:19.917Z,84.09
2018-04-27T20:41:23.945Z,84.79
2018-04-27T20:44:27.262Z,84.37
2018-04-27T20:47:30.577Z,84.51
2018-04-27T20:50:33.895Z,85.21
2018-04-27T20:53:57.681Z,85.44
2018-04-27T20:57:01.013Z,85.26
2018-04-27T21:00:04.386Z,85.69
2018-04-27T21:03:07.693Z,85.95
2018-04-27T21:06:10.997Z,85.86
2018-04-27T21:09:14.308Z,86.10
2018-04-27T21:12:17.613Z,86.43
2018-04-27T21:15:20.933Z,86.53
2018-04-27T21:18:24.492Z,86.00
2018-04-27T21:21:27.809Z,86.06
2018-04-27T21:24:31.149Z,86.02
2018-04-27T21:27:49.370Z,85.51
2018-04-27T21:30:53.467Z,85.69
2018-04-27T21:33:58.620Z,86.08
2018-04-27T21:37:01.917Z,86.61
2018-04-27T21:40:06.017Z,86.82
2018-04-27T21:43:09.321Z,86.47
2018-04-27T21:46:12.639Z,86.38
2018-04-27T21:49:19.320Z,86.66
2018-04-27T21:52:36.844Z,86.60
2018-04-27T21:55:40.912Z,86.96
2018-04-27T21:58:44.250Z,87.23
2018-04-27T22:01:48.317Z,87.22
2018-04-27T22:04:51.646Z,86.48
2018-04-27T22:07:55.737Z,86.70
2018-04-27T22:11:22.280Z,86.92
2018-04-27T22:14:29.349Z,86.61
2018-04-27T22:17:33.429Z,86.27
2018-04-27T22:20:44.095Z,86.34
2018-04-27T22:23:47.338Z,85.82
2018-04-27T22:26:58.645Z,86.18
2018-04-27T22:30:07.362Z,86.40
2018-04-27T22:33:29.258Z,86.39
2018-04-27T22:36:40.186Z,86.04
2018-04-27T22:39:51.361Z,85.95
2018-04-27T22:42:58.304Z,85.85
2018-04-27T22:46:05.006Z,85.97
2018-04-27T22:49:09.854Z,86.03
2018-04-27T22:52:13.181Z,86.11
2018-04-27T22:55:18.108Z,86.00
2018-04-27T22:58:22.201Z,86.27
2018-04-27T23:01:25.496Z,86.12
2018-04-27T23:04:28.809Z,86.35
2018-04-27T23:07:38.245Z,86.12
2018-04-27T23:10:51.525Z,86.27
2018-04-27T23:14:15.034Z,86.49
2018-04-27T23:17:19.114Z,86.35
2018-04-27T23:20:25.933Z,86.34
2018-04-27T23:23:30.015Z,86.54
2018-04-27T23:26:33.363Z,86.48
2018-04-27T23:29:36.681Z,86.39
2018-04-27T23:32:40.674Z,86.29
2018-04-27T23:35:50.265Z,86.20
2018-04-27T23:38:53.566Z,85.93
2018-04-27T23:41:56.874Z,85.61
2018-04-27T23:45:00.173Z,86.24
2018-04-27T23:48:03.482Z,86.83
2018-04-27T23:51:06.822Z,86.94
2018-04-27T23:54:11.825Z,86.88
2018-04-27T23:57:17.508Z,86.42
